createdAt,value
2018-04-30T00:00:00.367Z,78.55
2018-04-30T00:00:59.401Z,78.58
2018-04-30T00:02:58.795Z,78.45
2018-04-30T00:03:57.463Z,77.87
2018-04-30T00:05:57.420Z,78.01
2018-04-30T00:06:55.490Z,77.97
2018-04-30T00:08:52.447Z,78.01
2018-04-30T00:09:51.940Z,77.92
2018-04-30T00:11:49.930Z,77.72
2018-04-30T00:12:49.383Z,78.01
2018-04-30T00:14:49.741Z,77.92
2018-04-30T00:15:47.449Z,78.01
2018-04-30T00:17:46.933Z,78.11
2018-04-30T00:18:46.395Z,77.82
2018-04-30T00:20:44.995Z,77.72
2018-04-30T00:21:44.498Z,77.72
2018-04-30T00:23:42.625Z,77.53
2018-04-30T00:24:42.100Z,77.44
2018-04-30T00:26:39.569Z,77.53
2018-04-30T00:27:40.159Z,77.34
2018-04-30T00:29:37.521Z,77.34
2018-04-30T00:30:37.521Z,77.15
2018-04-30T00:32:35.989Z,77.25
2018-04-30T00:33:35.509Z,76.86
2018-04-30T00:35:33.918Z,76.67
2018-04-30T00:36:33.361Z,76.96
2018-04-30T00:38:32.308Z,76.96
2018-04-30T00:39:31.387Z,76.86
2018-04-30T00:41:29.775Z,76.57
2018-04-30T00:42:29.225Z,76.77
2018-04-30T00:44:25.683Z,76.10
2018-04-30T00:45:25.192Z,76.39
2018-04-30T00:47:21.136Z,75.39
2018-04-30T00:48:21.116Z,75.43
2018-04-30T00:50:18.592Z,76.73
2018-04-30T00:51:18.580Z,77.15
2018-04-30T00:53:13.857Z,78.07
2018-04-30T00:54:15.394Z,78.58
2018-04-30T00:56:09.823Z,79.06
2018-04-30T00:57:09.785Z,79.41
2018-04-30T00:59:05.763Z,79.12
2018-04-30T01:00:05.741Z,79.12
2018-04-30T01:02:02.209Z,79.35
2018-04-30T01:03:03.200Z,79.60
2018-04-30T01:04:58.171Z,78.74
2018-04-30T01:05:57.645Z,78.74
2018-04-30T01:07:54.099Z,79.31
2018-04-30T01:08:53.577Z,79.12
2018-04-30T01:10:50.032Z,78.55
2018-04-30T01:11:49.521Z,78.74
2018-04-30T01:13:46.004Z,78.58
2018-04-30T01:14:45.460Z,78.39
2018-04-30T01:16:41.411Z,78.01
2018-04-30T01:17:41.423Z,77.92
2018-04-30T01:19:37.362Z,78.11
2018-04-30T01:20:37.363Z,78.01
2018-04-30T01:22:37.251Z,78.20
2018-04-30T01:23:33.827Z,78.01
2018-04-30T01:25:30.775Z,78.30
2018-04-30T01:26:29.238Z,78.26
2018-04-30T01:28:25.709Z,78.01
2018-04-30T01:29:25.716Z,77.87
2018-04-30T01:31:21.124Z,77.78
2018-04-30T01:32:21.645Z,77.72
2018-04-30T01:34:17.106Z,77.87
2018-04-30T01:35:17.623Z,77.40
2018-04-30T01:37:13.572Z,77.87
2018-04-30T01:38:13.015Z,77.87
2018-04-30T01:40:11.977Z,77.50
2018-04-30T01:41:11.124Z,77.40
2018-04-30T01:43:10.566Z,77.59
2018-04-30T01:44:09.064Z,77.11
2018-04-30T01:46:07.105Z,77.01
2018-04-30T01:47:07.096Z,77.11
2018-04-30T01:49:05.077Z,76.64
2018-04-30T01:50:05.568Z,76.92
2018-04-30T01:52:03.523Z,76.73
2018-04-30T01:53:03.513Z,76.73
2018-04-30T01:55:02.482Z,76.92
2018-04-30T01:56:01.937Z,76.92
2018-04-30T01:57:59.041Z,76.82
2018-04-30T01:59:00.527Z,77.11
2018-04-30T02:00:56.987Z,76.64
2018-04-30T02:01:56.967Z,76.64
2018-04-30T02:03:55.441Z,76.06
2018-04-30T02:04:54.952Z,76.25
2018-04-30T02:06:53.883Z,76.06
2018-04-30T02:07:53.360Z,76.06
2018-04-30T02:09:51.302Z,76.06
2018-04-30T02:10:50.783Z,76.06
2018-04-30T02:12:48.776Z,75.87
2018-04-30T02:13:48.749Z,76.06
2018-04-30T02:15:46.788Z,75.68
2018-04-30T02:16:47.183Z,75.49
2018-04-30T02:18:45.624Z,75.39
2018-04-30T02:19:45.097Z,75.78
2018-04-30T02:21:43.046Z,75.20
2018-04-30T02:22:43.032Z,75.01
2018-04-30T02:24:40.635Z,75.39
2018-04-30T02:25:41.529Z,74.73
2018-04-30T02:27:38.602Z,75.10
2018-04-30T02:28:39.082Z,74.53
2018-04-30T02:30:37.078Z,74.73
2018-04-30T02:31:37.015Z,74.53
2018-04-30T02:33:35.568Z,74.82
2018-04-30T02:34:34.487Z,74.63
2018-04-30T02:36:32.975Z,74.15
2018-04-30T02:37:32.564Z,73.96
2018-04-30T02:39:32.006Z,74.15
2018-04-30T02:40:31.524Z,74.44
2018-04-30T02:42:29.476Z,74.34
2018-04-30T02:43:28.485Z,73.67
2018-04-30T02:45:27.463Z,73.48
2018-04-30T02:46:26.595Z,73.48
2018-04-30T02:48:27.113Z,73.48
2018-04-30T02:49:27.065Z,73.77
2018-04-30T02:51:26.007Z,73.86
2018-04-30T02:52:25.011Z,73.39
2018-04-30T02:54:24.461Z,73.58
2018-04-30T02:55:23.108Z,73.48
2018-04-30T02:57:21.065Z,72.91
2018-04-30T02:58:21.045Z,72.72
2018-04-30T03:00:19.016Z,73.00
2018-04-30T03:01:19.516Z,73.00
2018-04-30T03:03:17.969Z,72.72
2018-04-30T03:04:17.468Z,72.81
2018-04-30T03:06:14.895Z,72.53
2018-04-30T03:07:14.853Z,72.62
2018-04-30T03:09:13.342Z,72.14
2018-04-30T03:10:13.861Z,72.33
2018-04-30T03:12:10.920Z,72.05
2018-04-30T03:13:10.889Z,71.82
2018-04-30T03:15:07.383Z,72.24
2018-04-30T03:16:07.833Z,72.24
2018-04-30T03:18:03.816Z,71.86
2018-04-30T03:19:02.811Z,71.95
2018-04-30T03:20:58.740Z,72.33
2018-04-30T03:21:58.784Z,72.05
2018-04-30T03:23:54.774Z,72.14
2018-04-30T03:24:54.695Z,71.76
2018-04-30T03:26:50.654Z,71.28
2018-04-30T03:27:51.162Z,72.24
2018-04-30T03:29:46.617Z,72.14
2018-04-30T03:30:47.121Z,71.95
2018-04-30T03:32:45.115Z,71.86
2018-04-30T03:33:45.572Z,71.86
2018-04-30T03:35:43.123Z,71.76
2018-04-30T03:36:42.727Z,71.76
2018-04-30T03:38:40.692Z,71.57
2018-04-30T03:39:40.690Z,71.09
2018-04-30T03:41:38.663Z,71.28
2018-04-30T03:42:39.196Z,71.19
2018-04-30T03:44:38.079Z,70.90
2018-04-30T03:45:37.585Z,70.81
2018-04-30T03:47:35.187Z,70.33
2018-04-30T03:48:34.674Z,70.77
2018-04-30T03:50:34.144Z,70.90
2018-04-30T03:51:33.634Z,71.19
2018-04-30T03:53:30.853Z,71.00
2018-04-30T03:54:30.852Z,70.39
2018-04-30T03:56:26.818Z,70.29
2018-04-30T03:57:27.335Z,70.29
2018-04-30T03:59:22.775Z,70.87
2018-04-30T04:00:23.258Z,70.77
2018-04-30T04:02:19.183Z,70.67
2018-04-30T04:03:18.687Z,70.96
2018-04-30T04:05:15.145Z,70.77
2018-04-30T04:06:14.634Z,70.77
2018-04-30T04:08:11.109Z,70.77
2018-04-30T04:09:11.520Z,70.77
2018-04-30T04:11:06.558Z,70.77
2018-04-30T04:12:06.530Z,70.77
2018-04-30T04:14:03.008Z,70.29
2018-04-30T04:15:02.480Z,70.29
2018-04-30T04:17:00.924Z,70.01
2018-04-30T04:18:00.428Z,69.82
2018-04-30T04:19:56.393Z,70.01
2018-04-30T04:20:56.378Z,70.20
2018-04-30T04:22:52.356Z,69.53
2018-04-30T04:23:52.309Z,69.15
2018-04-30T04:25:50.780Z,69.05
2018-04-30T04:26:51.262Z,69.02
2018-04-30T04:28:49.310Z,68.82
2018-04-30T04:29:48.471Z,68.26
2018-04-30T04:31:48.848Z,68.44
2018-04-30T04:32:46.526Z,68.54
2018-04-30T04:34:45.988Z,68.26
2018-04-30T04:35:44.630Z,68.16
2018-04-30T04:37:45.114Z,67.68
2018-04-30T04:38:45.054Z,68.06
2018-04-30T04:40:43.017Z,67.87
2018-04-30T04:41:43.072Z,68.06
2018-04-30T04:43:39.957Z,68.10
2018-04-30T04:44:39.960Z,68.19
2018-04-30T04:46:35.920Z,68.29
2018-04-30T04:47:35.417Z,68.29
2018-04-30T04:49:31.395Z,68.10
2018-04-30T04:50:30.862Z,67.71
2018-04-30T04:52:29.299Z,68.00
2018-04-30T04:53:30.301Z,67.81
2018-04-30T04:55:35.778Z,68.10
2018-04-30T04:56:35.795Z,67.81
2018-04-30T04:58:33.898Z,68.00
2018-04-30T04:59:34.747Z,68.00
2018-04-30T05:01:35.323Z,67.52
2018-04-30T05:02:34.335Z,67.62
2018-04-30T05:04:32.277Z,68.00
2018-04-30T05:05:32.248Z,67.52
2018-04-30T05:07:31.217Z,67.71
2018-04-30T05:08:30.210Z,67.62
2018-04-30T05:10:29.147Z,67.24
2018-04-30T05:11:28.700Z,67.43
2018-04-30T05:13:24.632Z,67.43
2018-04-30T05:14:24.624Z,67.62
2018-04-30T05:16:22.565Z,67.33
2018-04-30T05:17:23.044Z,67.62
2018-04-30T05:19:21.137Z,67.24
2018-04-30T05:20:21.121Z,67.52
2018-04-30T05:22:19.233Z,67.71
2018-04-30T05:23:18.707Z,68.19
2018-04-30T05:25:17.650Z,68.10
2018-04-30T05:26:16.126Z,67.71
2018-04-30T05:28:15.085Z,68.00
2018-04-30T05:29:14.066Z,68.00
2018-04-30T05:31:12.029Z,68.76
2018-04-30T05:32:11.991Z,68.38
2018-04-30T05:34:09.972Z,68.38
2018-04-30T05:35:10.473Z,68.38
2018-04-30T05:37:08.914Z,68.67
2018-04-30T05:38:09.328Z,68.67
2018-04-30T05:40:06.413Z,68.29
2018-04-30T05:41:06.856Z,68.38
2018-04-30T05:43:04.460Z,68.19
2018-04-30T05:44:04.433Z,68.00
2018-04-30T05:46:02.460Z,68.19
2018-04-30T05:47:02.869Z,68.00
2018-04-30T05:48:59.983Z,68.76
2018-04-30T05:50:00.928Z,68.99
2018-04-30T05:51:58.100Z,68.99
2018-04-30T05:52:58.045Z,69.09
2018-04-30T05:54:54.067Z,69.09
2018-04-30T05:55:54.989Z,69.27
2018-04-30T05:57:51.469Z,68.90
2018-04-30T05:58:50.960Z,68.76
2018-04-30T06:00:45.937Z,68.80
2018-04-30T06:01:45.932Z,69.37
2018-04-30T06:03:41.847Z,69.27
2018-04-30T06:04:42.373Z,69.47
2018-04-30T06:06:37.781Z,70.10
2018-04-30T06:07:38.294Z,71.15
2018-04-30T06:09:33.767Z,70.77
2018-04-30T06:10:33.737Z,70.87
2018-04-30T06:12:33.210Z,70.96
2018-04-30T06:13:31.820Z,71.06
2018-04-30T06:15:30.280Z,71.15
2018-04-30T06:16:30.799Z,71.15
2018-04-30T06:18:28.338Z,71.15
2018-04-30T06:19:28.315Z,71.34
2018-04-30T06:21:26.288Z,72.97
2018-04-30T06:22:25.757Z,73.16
2018-04-30T06:24:23.211Z,73.35
2018-04-30T06:25:21.743Z,73.35
2018-04-30T06:27:19.741Z,75.64
2018-04-30T06:28:20.214Z,74.88
2018-04-30T06:30:17.661Z,74.59
2018-04-30T06:31:18.147Z,74.88
2018-04-30T06:33:18.168Z,75.54
2018-04-30T06:34:18.092Z,77.26
2018-04-30T06:36:19.055Z,75.83
2018-04-30T06:37:19.050Z,76.12
2018-04-30T06:39:17.492Z,75.83
2018-04-30T06:40:17.500Z,77.08
2018-04-30T06:42:14.970Z,75.45
2018-04-30T06:43:15.472Z,76.40
2018-04-30T06:45:13.538Z,76.79
2018-04-30T06:46:12.503Z,76.21
2018-04-30T06:48:10.970Z,78.51
2018-04-30T06:49:10.974Z,79.46
2018-04-30T06:51:08.417Z,79.36
2018-04-30T06:52:08.915Z,79.94
2018-04-30T06:54:06.868Z,79.56
2018-04-30T06:55:06.369Z,80.04
2018-04-30T06:57:05.288Z,79.56
2018-04-30T06:58:05.326Z,79.65
2018-04-30T07:00:03.912Z,80.13
2018-04-30T07:01:03.353Z,80.04
2018-04-30T07:03:01.435Z,81.66
2018-04-30T07:04:00.594Z,80.99
2018-04-30T07:05:58.518Z,80.61
2018-04-30T07:06:58.491Z,80.80
2018-04-30T07:08:58.985Z,81.37
2018-04-30T07:09:59.051Z,80.90
2018-04-30T07:11:56.918Z,82.81
2018-04-30T07:12:58.915Z,82.04
2018-04-30T07:14:58.869Z,81.76
2018-04-30T07:15:57.375Z,82.81
2018-04-30T07:17:56.814Z,82.23
2018-04-30T07:18:56.310Z,81.27
2018-04-30T07:20:53.903Z,81.66
2018-04-30T07:21:53.381Z,81.47
2018-04-30T07:23:52.354Z,82.23
2018-04-30T07:24:52.329Z,80.80
2018-04-30T07:26:49.951Z,81.37
2018-04-30T07:27:49.985Z,80.32
2018-04-30T07:29:48.851Z,81.27
2018-04-30T07:30:47.470Z,80.90
2018-04-30T07:32:45.477Z,82.42
2018-04-30T07:33:45.937Z,82.61
2018-04-30T07:35:43.889Z,82.23
2018-04-30T07:36:43.883Z,81.37
2018-04-30T07:38:41.813Z,81.51
2018-04-30T07:39:41.786Z,83.33
2018-04-30T07:41:39.439Z,83.33
2018-04-30T07:42:40.262Z,83.23
2018-04-30T07:44:37.473Z,83.90
2018-04-30T07:45:37.432Z,83.61
2018-04-30T07:47:36.314Z,83.90
2018-04-30T07:48:35.812Z,83.99
2018-04-30T07:50:33.280Z,82.94
2018-04-30T07:51:33.301Z,83.33
2018-04-30T07:53:33.201Z,84.09
2018-04-30T07:54:32.198Z,84.28
2018-04-30T07:56:28.200Z,83.80
2018-04-30T07:57:28.185Z,83.90
2018-04-30T07:59:24.118Z,83.33
2018-04-30T08:00:24.132Z,83.80
2018-04-30T08:02:20.100Z,84.19
2018-04-30T08:03:20.072Z,84.47
2018-04-30T08:05:16.565Z,83.33
2018-04-30T08:06:16.046Z,85.10
2018-04-30T08:08:11.967Z,84.19
2018-04-30T08:09:12.557Z,84.23
2018-04-30T08:11:09.927Z,83.70
2018-04-30T08:12:09.925Z,84.23
2018-04-30T08:14:05.873Z,84.47
2018-04-30T08:15:07.363Z,83.86
2018-04-30T08:17:03.859Z,84.47
2018-04-30T08:18:04.800Z,84.47
2018-04-30T08:20:01.776Z,83.80
2018-04-30T08:21:01.791Z,84.47
2018-04-30T08:22:59.731Z,83.61
2018-04-30T08:23:59.726Z,84.38
2018-04-30T08:25:57.595Z,83.61
2018-04-30T08:26:55.647Z,83.04
2018-04-30T08:28:52.583Z,83.61
2018-04-30T08:29:51.576Z,83.80
2018-04-30T08:31:48.560Z,83.42
2018-04-30T08:32:47.552Z,83.61
2018-04-30T08:34:47.043Z,83.99
2018-04-30T08:35:43.501Z,83.80
2018-04-30T08:37:37.947Z,83.90
2018-04-30T08:38:37.951Z,83.56
2018-04-30T08:40:34.411Z,83.65
2018-04-30T08:41:33.906Z,83.42
2018-04-30T08:43:29.856Z,83.51
2018-04-30T08:44:29.836Z,82.98
2018-04-30T08:46:25.816Z,83.46
2018-04-30T08:47:25.745Z,82.79
2018-04-30T08:49:22.704Z,83.37
2018-04-30T08:50:21.692Z,83.17
2018-04-30T08:52:19.136Z,82.79
2018-04-30T08:53:17.638Z,83.27
2018-04-30T08:55:12.585Z,81.93
2018-04-30T08:56:12.060Z,81.84
2018-04-30T08:58:11.016Z,80.88
2018-04-30T08:59:10.009Z,81.84
2018-04-30T09:01:08.470Z,81.74
2018-04-30T09:02:08.085Z,81.93
2018-04-30T09:04:04.047Z,81.26
2018-04-30T09:05:02.536Z,81.26
2018-04-30T09:06:59.492Z,80.50
2018-04-30T09:07:58.479Z,80.79
2018-04-30T09:09:54.491Z,80.79
2018-04-30T09:10:54.441Z,80.40
2018-04-30T09:12:52.915Z,80.30
2018-04-30T09:13:52.390Z,80.40
2018-04-30T09:15:47.372Z,80.02
2018-04-30T09:16:46.789Z,80.59
2018-04-30T09:18:42.778Z,79.93
2018-04-30T09:19:43.256Z,80.40
2018-04-30T09:21:38.700Z,79.73
2018-04-30T09:22:38.706Z,80.44
2018-04-30T09:24:34.166Z,79.68
2018-04-30T09:25:33.165Z,80.16
2018-04-30T09:27:27.597Z,79.73
2018-04-30T09:28:27.608Z,79.49
2018-04-30T09:30:22.572Z,79.39
2018-04-30T09:31:22.555Z,80.16
2018-04-30T09:33:20.995Z,79.87
2018-04-30T09:34:19.977Z,80.06
2018-04-30T09:36:14.927Z,79.68
2018-04-30T09:37:14.927Z,79.35
2018-04-30T09:39:09.365Z,79.87
2018-04-30T09:40:09.372Z,79.39
2018-04-30T09:42:05.793Z,79.77
2018-04-30T09:43:04.785Z,79.20
2018-04-30T09:44:58.258Z,79.29
2018-04-30T09:45:58.263Z,79.20
2018-04-30T09:47:54.222Z,79.00
2018-04-30T09:48:54.199Z,79.20
2018-04-30T09:50:50.159Z,79.39
2018-04-30T09:51:50.651Z,78.68
2018-04-30T09:53:44.575Z,78.97
2018-04-30T09:54:45.090Z,79.87
2018-04-30T09:56:40.572Z,79.29
2018-04-30T09:57:40.544Z,79.10
2018-04-30T09:59:36.505Z,79.10
2018-04-30T10:00:36.482Z,78.63
2018-04-30T10:02:35.450Z,79.33
2018-04-30T10:03:34.438Z,78.47
2018-04-30T10:05:32.392Z,77.42
2018-04-30T10:06:30.352Z,77.42
2018-04-30T10:08:26.326Z,77.61
2018-04-30T10:09:26.286Z,77.26
2018-04-30T10:11:24.237Z,77.23
2018-04-30T10:12:24.266Z,77.13
2018-04-30T10:14:21.197Z,77.61
2018-04-30T10:15:20.186Z,77.13
2018-04-30T10:17:16.193Z,77.42
2018-04-30T10:18:16.162Z,77.04
2018-04-30T10:20:13.144Z,77.33
2018-04-30T10:21:12.091Z,77.04
2018-04-30T10:23:08.533Z,77.13
2018-04-30T10:24:08.033Z,77.13
2018-04-30T10:26:04.049Z,76.84
2018-04-30T10:27:03.977Z,76.75
2018-04-30T10:29:02.101Z,76.75
2018-04-30T10:30:02.070Z,76.37
2018-04-30T10:31:58.042Z,76.65
2018-04-30T10:32:59.531Z,76.46
2018-04-30T10:34:57.475Z,76.08
2018-04-30T10:35:55.954Z,75.54
2018-04-30T10:37:53.908Z,75.93
2018-04-30T10:38:54.406Z,76.40
2018-04-30T10:40:52.367Z,75.45
2018-04-30T10:41:51.857Z,75.35
2018-04-30T10:43:47.820Z,76.60
2018-04-30T10:44:48.321Z,75.35
2018-04-30T10:46:43.756Z,75.45
2018-04-30T10:47:43.747Z,75.35
2018-04-30T10:49:41.210Z,75.83
2018-04-30T10:50:40.721Z,75.83
2018-04-30T10:52:37.684Z,75.54
2018-04-30T10:53:38.184Z,76.40
2018-04-30T10:55:36.128Z,74.74
2018-04-30T10:56:35.595Z,74.65
2018-04-30T10:58:31.559Z,75.79
2018-04-30T10:59:31.549Z,75.79
2018-04-30T11:01:27.530Z,76.84
2018-04-30T11:02:27.500Z,76.56
2018-04-30T11:04:23.976Z,76.50
2018-04-30T11:05:23.491Z,75.35
2018-04-30T11:07:19.482Z,75.45
2018-04-30T11:08:20.420Z,74.97
2018-04-30T11:10:15.447Z,75.73
2018-04-30T11:11:16.421Z,75.73
2018-04-30T11:13:10.384Z,75.64
2018-04-30T11:14:09.878Z,75.54
2018-04-30T11:16:06.315Z,75.35
2018-04-30T11:17:07.256Z,75.73
2018-04-30T11:19:02.282Z,75.73
2018-04-30T11:20:01.763Z,75.26
2018-04-30T11:21:59.696Z,74.87
2018-04-30T11:22:59.699Z,74.68
2018-04-30T11:24:54.683Z,75.16
2018-04-30T11:25:54.159Z,74.52
2018-04-30T11:27:47.627Z,75.20
2018-04-30T11:28:48.110Z,75.01
2018-04-30T11:30:43.619Z,75.77
2018-04-30T11:31:44.493Z,75.39
2018-04-30T11:33:40.548Z,75.16
2018-04-30T11:34:39.554Z,75.73
2018-04-30T11:36:35.505Z,76.02
2018-04-30T11:37:35.498Z,76.12
2018-04-30T11:39:31.515Z,76.50
2018-04-30T11:40:31.475Z,76.21
2018-04-30T11:42:29.933Z,75.87
2018-04-30T11:43:27.420Z,75.58
2018-04-30T11:45:24.890Z,75.23
2018-04-30T11:46:23.400Z,74.76
2018-04-30T11:48:21.839Z,74.69
2018-04-30T11:49:21.387Z,74.02
2018-04-30T11:51:18.309Z,72.88
2018-04-30T11:52:17.313Z,72.68
2018-04-30T11:54:13.227Z,71.82
2018-04-30T11:55:13.256Z,71.34
2018-04-30T11:57:10.218Z,71.15
2018-04-30T11:58:09.188Z,71.40
2018-04-30T12:00:05.650Z,71.59
2018-04-30T12:01:05.127Z,72.64
2018-04-30T12:03:01.121Z,72.32
2018-04-30T12:04:01.075Z,72.80
2018-04-30T12:05:59.070Z,73.47
2018-04-30T12:06:59.540Z,73.51
2018-04-30T12:08:54.975Z,73.70
2018-04-30T12:11:10.937Z,74.57
2018-04-30T12:12:10.892Z,75.08
2018-04-30T12:14:07.857Z,73.22
2018-04-30T12:15:07.392Z,73.41
2018-04-30T12:17:05.798Z,73.80
2018-04-30T12:18:04.955Z,73.32
2018-04-30T12:20:02.933Z,73.09
2018-04-30T12:21:02.899Z,73.76
2018-04-30T12:23:01.868Z,74.62
2018-04-30T12:24:00.846Z,74.43
2018-04-30T12:25:56.824Z,74.05
2018-04-30T12:26:56.765Z,74.52
2018-04-30T12:28:54.702Z,75.35
2018-04-30T12:29:54.709Z,74.97
2018-04-30T12:31:50.653Z,76.60
2018-04-30T12:32:50.648Z,76.21
2018-04-30T12:34:49.619Z,76.21
2018-04-30T12:35:48.747Z,76.31
2018-04-30T12:37:46.691Z,76.60
2018-04-30T12:38:46.676Z,76.89
2018-04-30T12:40:42.677Z,76.64
2018-04-30T12:41:42.633Z,77.21
2018-04-30T12:43:39.178Z,75.96
2018-04-30T12:44:38.620Z,76.35
2018-04-30T12:46:35.583Z,76.06
2018-04-30T12:47:34.580Z,75.96
2018-04-30T12:49:31.610Z,76.35
2018-04-30T12:50:30.545Z,76.44
2018-04-30T12:52:27.000Z,76.21
2018-04-30T12:53:26.484Z,76.92
2018-04-30T12:55:22.472Z,77.02
2018-04-30T12:56:22.949Z,76.31
2018-04-30T12:58:23.403Z,76.35
2018-04-30T12:59:22.902Z,76.25
2018-04-30T13:01:18.833Z,76.54
2018-04-30T13:02:18.849Z,75.87
2018-04-30T13:04:14.866Z,75.45
2018-04-30T13:05:14.814Z,75.20
2018-04-30T13:07:10.705Z,75.16
2018-04-30T13:08:10.722Z,75.45
2018-04-30T13:10:06.705Z,76.02
2018-04-30T13:11:07.185Z,75.98
2018-04-30T13:13:05.661Z,77.76
2018-04-30T13:14:04.773Z,79.49
2018-04-30T13:16:02.240Z,79.93
2018-04-30T13:17:00.687Z,81.13
2018-04-30T13:18:57.157Z,81.56
2018-04-30T13:19:57.569Z,81.33
2018-04-30T13:21:53.159Z,81.04
2018-04-30T13:22:53.632Z,79.38
2018-04-30T13:24:50.577Z,78.94
2018-04-30T13:25:51.117Z,78.37
2018-04-30T13:27:49.041Z,78.75
2018-04-30T13:28:49.037Z,79.14
2018-04-30T13:30:48.000Z,77.84
2018-04-30T13:31:47.499Z,77.36
2018-04-30T13:33:42.626Z,78.26
2018-04-30T13:34:42.572Z,77.40
2018-04-30T13:36:41.020Z,79.12
2018-04-30T13:37:40.510Z,79.31
2018-04-30T13:39:38.473Z,80.36
2018-04-30T13:40:38.462Z,80.55
2018-04-30T13:42:31.948Z,81.70
2018-04-30T13:43:31.937Z,81.32
2018-04-30T13:45:31.408Z,81.89
2018-04-30T13:46:29.993Z,81.13
2018-04-30T13:48:29.441Z,81.26
2018-04-30T13:49:28.065Z,82.03
2018-04-30T13:51:24.094Z,82.31
2018-04-30T13:52:24.041Z,80.21
2018-04-30T13:54:21.005Z,80.79
2018-04-30T13:55:19.996Z,80.02
2018-04-30T13:57:15.947Z,79.87
2018-04-30T13:58:15.934Z,79.29
2018-04-30T14:00:12.886Z,79.49
2018-04-30T14:01:11.928Z,79.29
2018-04-30T14:03:07.886Z,79.39
2018-04-30T14:04:07.856Z,78.63
2018-04-30T14:06:03.790Z,79.39
2018-04-30T14:07:04.747Z,79.73
2018-04-30T14:09:00.228Z,79.83
2018-04-30T14:09:59.737Z,79.06
2018-04-30T14:11:56.204Z,78.20
2018-04-30T14:12:55.660Z,77.82
2018-04-30T14:14:52.133Z,77.34
2018-04-30T14:15:52.139Z,77.44
2018-04-30T14:17:47.585Z,76.86
2018-04-30T14:18:47.570Z,76.86
2018-04-30T14:20:44.028Z,76.86
2018-04-30T14:21:44.024Z,77.53
2018-04-30T14:23:39.495Z,77.63
2018-04-30T14:24:39.462Z,76.20
2018-04-30T14:26:35.416Z,76.62
2018-04-30T14:27:35.412Z,76.33
2018-04-30T14:29:30.374Z,76.42
2018-04-30T14:30:29.872Z,75.95
2018-04-30T14:32:24.827Z,76.04
2018-04-30T14:33:24.310Z,76.62
2018-04-30T14:35:22.270Z,77.42
2018-04-30T14:36:22.259Z,76.42
2018-04-30T14:38:18.224Z,76.84
2018-04-30T14:39:18.216Z,77.00
2018-04-30T14:41:14.143Z,77.04
2018-04-30T14:42:14.161Z,75.56
2018-04-30T14:44:09.169Z,75.56
2018-04-30T14:45:08.592Z,74.90
2018-04-30T14:47:05.072Z,76.65
2018-04-30T14:48:05.554Z,75.09
2018-04-30T14:50:00.514Z,75.47
2018-04-30T14:51:00.513Z,75.66
2018-04-30T14:52:56.506Z,75.56
2018-04-30T14:53:56.516Z,74.80
2018-04-30T14:56:19.024Z,74.32
2018-04-30T14:57:17.581Z,74.70
2018-04-30T14:59:14.063Z,74.26
2018-04-30T15:00:13.514Z,74.07
2018-04-30T15:02:09.527Z,73.40
2018-04-30T15:03:09.479Z,74.26
2018-04-30T15:05:06.914Z,73.54
2018-04-30T15:06:05.419Z,73.72
2018-04-30T15:08:01.346Z,73.63
2018-04-30T15:09:01.867Z,72.71
2018-04-30T15:10:57.306Z,72.90
2018-04-30T15:11:57.810Z,72.23
2018-04-30T15:13:51.791Z,72.29
2018-04-30T15:14:51.801Z,72.38
2018-04-30T15:16:48.742Z,72.00
2018-04-30T15:17:47.716Z,72.09
2018-04-30T15:19:43.678Z,72.00
2018-04-30T15:20:44.229Z,71.42
2018-04-30T15:22:41.115Z,71.33
2018-04-30T15:23:39.629Z,70.85
2018-04-30T15:25:35.582Z,70.09
2018-04-30T15:26:35.525Z,70.76
2018-04-30T15:28:34.981Z,68.74
2018-04-30T15:29:33.478Z,66.93
2018-04-30T15:31:31.437Z,65.39
2018-04-30T15:32:31.423Z,67.02
2018-04-30T15:34:30.903Z,65.49
2018-04-30T15:35:29.539Z,64.82
2018-04-30T15:37:28.520Z,65.01
2018-04-30T15:38:27.643Z,64.82
2018-04-30T15:40:24.085Z,67.88
2018-04-30T15:41:24.082Z,68.55
2018-04-30T15:43:22.525Z,67.11
2018-04-30T15:44:21.709Z,66.25
2018-04-30T15:46:19.636Z,65.65
2018-04-30T15:47:17.633Z,67.47
2018-04-30T15:49:17.101Z,68.52
2018-04-30T15:50:15.582Z,68.52
2018-04-30T15:52:14.069Z,69.57
2018-04-30T15:53:13.539Z,68.90
2018-04-30T15:55:09.532Z,67.37
2018-04-30T15:56:09.485Z,67.34
2018-04-30T15:58:08.455Z,69.82
2018-04-30T15:59:07.433Z,69.82
2018-04-30T16:01:03.387Z,70.11
2018-04-30T16:02:03.408Z,70.11
2018-04-30T16:04:02.836Z,70.97
2018-04-30T16:05:01.443Z,69.35
2018-04-30T16:06:57.414Z,70.40
2018-04-30T16:07:58.935Z,69.73
2018-04-30T16:09:56.356Z,70.40
2018-04-30T16:10:55.496Z,69.82
2018-04-30T16:12:52.464Z,70.68
2018-04-30T16:13:51.504Z,71.07
2018-04-30T16:15:47.456Z,71.64
2018-04-30T16:16:47.402Z,71.83
2018-04-30T16:18:45.355Z,71.99
2018-04-30T16:19:43.867Z,72.28
2018-04-30T16:21:41.353Z,72.56
2018-04-30T16:22:41.310Z,72.28
2018-04-30T16:24:39.284Z,73.23
2018-04-30T16:25:39.769Z,72.75
2018-04-30T16:27:37.207Z,72.94
2018-04-30T16:28:37.203Z,72.94
2018-04-30T16:30:33.154Z,72.75
2018-04-30T16:31:33.162Z,72.94
2018-04-30T16:33:30.588Z,73.52
2018-04-30T16:34:29.127Z,73.14
2018-04-30T16:36:28.062Z,73.61
2018-04-30T16:37:27.566Z,74.19
2018-04-30T16:39:25.485Z,73.90
2018-04-30T16:40:24.946Z,73.99
2018-04-30T16:42:20.918Z,73.99
2018-04-30T16:43:21.405Z,74.09
2018-04-30T16:45:17.877Z,74.28
2018-04-30T16:46:16.846Z,73.99
2018-04-30T16:48:13.812Z,74.38
2018-04-30T16:49:12.795Z,73.61
2018-04-30T16:51:09.699Z,73.61
2018-04-30T16:52:08.765Z,73.39
2018-04-30T16:54:04.719Z,74.15
2018-04-30T16:55:04.714Z,73.99
2018-04-30T16:57:04.150Z,72.66
2018-04-30T16:58:02.782Z,74.44
2018-04-30T17:00:00.757Z,73.99
2018-04-30T17:01:00.734Z,73.90
2018-04-30T17:03:00.203Z,74.09
2018-04-30T17:03:58.877Z,74.19
2018-04-30T17:05:54.745Z,73.00
2018-04-30T17:06:54.776Z,73.90
2018-04-30T17:08:49.215Z,73.96
2018-04-30T17:09:49.215Z,74.05
2018-04-30T17:11:47.151Z,73.96
2018-04-30T17:12:45.149Z,74.15
2018-04-30T17:14:41.158Z,73.96
2018-04-30T17:15:41.101Z,74.24
2018-04-30T17:17:39.157Z,74.82
2018-04-30T17:18:40.058Z,74.44
2018-04-30T17:20:35.157Z,74.73
2018-04-30T17:21:35.113Z,75.39
2018-04-30T17:23:31.100Z,75.20
2018-04-30T17:24:31.056Z,75.87
2018-04-30T17:26:30.046Z,76.60
2018-04-30T17:27:30.009Z,76.69
2018-04-30T17:29:27.099Z,77.36
2018-04-30T17:30:27.153Z,77.17
2018-04-30T17:32:23.021Z,77.65
2018-04-30T17:33:22.987Z,77.65
2018-04-30T17:35:20.954Z,77.08
2018-04-30T17:36:20.945Z,77.45
2018-04-30T17:38:17.972Z,77.74
2018-04-30T17:39:17.468Z,77.17
2018-04-30T17:41:13.488Z,77.08
2018-04-30T17:42:12.929Z,76.98
2018-04-30T17:44:09.909Z,77.08
2018-04-30T17:46:27.502Z,77.26
2018-04-30T17:47:27.078Z,77.26
2018-04-30T17:49:25.061Z,77.23
2018-04-30T17:50:25.019Z,77.42
2018-04-30T17:52:23.984Z,78.47
2018-04-30T17:53:23.136Z,78.66
2018-04-30T17:55:19.037Z,77.99
2018-04-30T17:56:19.042Z,79.14
2018-04-30T17:58:16.000Z,78.66
2018-04-30T17:59:15.000Z,78.66
2018-04-30T18:01:12.387Z,78.37
2018-04-30T18:02:10.945Z,78.56
2018-04-30T18:04:07.408Z,79.19
2018-04-30T18:05:06.897Z,79.48
2018-04-30T18:07:02.905Z,79.48
2018-04-30T18:08:02.843Z,79.86
2018-04-30T18:09:58.774Z,79.19
2018-04-30T18:10:58.757Z,79.10
2018-04-30T18:12:56.221Z,78.72
2018-04-30T18:13:55.236Z,78.91
2018-04-30T18:15:51.686Z,79.00
2018-04-30T18:16:50.644Z,78.91
2018-04-30T18:18:47.121Z,79.48
2018-04-30T18:19:46.678Z,78.91
2018-04-30T18:21:43.532Z,78.43
2018-04-30T18:22:43.535Z,79.10
2018-04-30T18:24:38.494Z,78.05
2018-04-30T18:25:38.479Z,77.95
2018-04-30T18:27:34.443Z,78.05
2018-04-30T18:28:34.434Z,77.86
2018-04-30T18:30:30.384Z,77.57
2018-04-30T18:31:30.370Z,77.76
2018-04-30T18:33:26.839Z,77.82
2018-04-30T18:34:27.827Z,77.91
2018-04-30T18:36:23.267Z,77.91
2018-04-30T18:37:22.771Z,78.01
2018-04-30T18:39:18.210Z,77.72
2018-04-30T18:40:18.207Z,77.53
2018-04-30T18:42:15.656Z,77.62
2018-04-30T18:43:14.135Z,77.34
2018-04-30T18:45:10.099Z,77.34
2018-04-30T18:46:10.602Z,77.53
2018-04-30T18:48:06.031Z,77.25
2018-04-30T18:49:06.046Z,76.96
2018-04-30T18:51:02.047Z,77.62
2018-04-30T18:52:01.975Z,76.96
2018-04-30T18:53:58.424Z,77.62
2018-04-30T18:54:57.921Z,77.91
2018-04-30T18:56:56.404Z,77.82
2018-04-30T18:57:56.866Z,78.01
2018-04-30T18:59:55.467Z,77.15